sensor_id;sensor_type;location;lat;lon;timestamp;P1;durP1;ratioP1;P2;durP2;ratioP2
15404;SDS011;7801;48.124;11.590;2022-12-15T00:01:24;3.03;;;2.83;;
15404;SDS011;7801;48.124;11.590;2022-12-15T00:04:09;2.03;;;1.87;;
15404;SDS011;7801;48.124;11.590;2022-12-15T00:06:55;2.63;;;2.53;;
15404;SDS011;7801;48.124;11.590;2022-12-15T00:09:39;3.47;;;3.37;;
15404;SDS011;7801;48.124;11.590;2022-12-15T00:12:24;2.27;;;2.17;;
15404;SDS011;7801;48.124;11.590;2022-12-15T00:15:09;3.60;;;3.40;;
15404;SDS011;7801;48.124;11.590;2022-12-15T00:17:54;3.80;;;3.37;;
15404;SDS011;7801;48.124;11.590;2022-12-15T00:20:39;3.10;;;2.90;;
15404;SDS011;7801;48.124;11.590;2022-12-15T00:23:24;2.20;;;2.10;;
15404;SDS011;7801;48.124;11.590;2022-12-15T00:26:08;2.43;;;2.33;;
15404;SDS011;7801;48.124;11.590;2022-12-15T00:28:52;3.27;;;2.97;;
15404;SDS011;7801;48.124;11.590;2022-12-15T00:31:36;3.77;;;3.23;;
15404;SDS011;7801;48.124;11.590;2022-12-15T00:34:22;4.73;;;4.43;;
15404;SDS011;7801;48.124;11.590;2022-12-15T00:37:06;2.00;;;1.83;;
15404;SDS011;7801;48.124;11.590;2022-12-15T00:39:49;8.77;;;3.57;;
15404;SDS011;7801;48.124;11.590;2022-12-15T00:42:38;3.50;;;3.30;;
15404;SDS011;7801;48.124;11.590;2022-12-15T00:45:07;5.27;;;4.13;;
15404;SDS011;7801;48.124;11.590;2022-12-15T00:47:40;3.57;;;3.37;;
15404;SDS011;7801;48.124;11.590;2022-12-15T00:50:06;4.07;;;3.73;;
15404;SDS011;7801;48.124;11.590;2022-12-15T00:52:53;3.23;;;2.93;;
15404;SDS011;7801;48.124;11.590;2022-12-15T00:55:38;3.80;;;3.50;;
15404;SDS011;7801;48.124;11.590;2022-12-15T00:58:22;3.00;;;2.90;;
15404;SDS011;7801;48.124;11.590;2022-12-15T01:01:06;2.50;;;2.40;;
15404;SDS011;7801;48.124;11.590;2022-12-15T01:03:52;3.67;;;3.47;;
15404;SDS011;7801;48.124;11.590;2022-12-15T01:06:39;4.30;;;4.07;;
15404;SDS011;7801;48.124;11.590;2022-12-15T01:09:25;2.40;;;2.30;;
15404;SDS011;7801;48.124;11.590;2022-12-15T01:12:11;3.10;;;3.00;;
15404;SDS011;7801;48.124;11.590;2022-12-15T01:14:59;4.23;;;3.83;;
15404;SDS011;7801;48.124;11.590;2022-12-15T01:17:45;5.40;;;3.77;;
15404;SDS011;7801;48.124;11.590;2022-12-15T01:20:30;2.33;;;2.23;;
15404;SDS011;7801;48.124;11.590;2022-12-15T01:22:59;2.25;;;2.15;;
15404;SDS011;7801;48.124;11.590;2022-12-15T01:25:25;2.33;;;2.23;;
15404;SDS011;7801;48.124;11.590;2022-12-15T01:27:54;2.83;;;2.72;;
15404;SDS011;7801;48.124;11.590;2022-12-15T01:30:25;4.00;;;3.80;;
15404;SDS011;7801;48.124;11.590;2022-12-15T01:32:57;4.60;;;4.22;;
15404;SDS011;7801;48.124;11.590;2022-12-15T01:35:23;5.53;;;4.10;;
15404;SDS011;7801;48.124;11.590;2022-12-15T01:37:53;3.20;;;3.07;;
15404;SDS011;7801;48.124;11.590;2022-12-15T01:40:19;4.63;;;4.33;;
15404;SDS011;7801;48.124;11.590;2022-12-15T01:43:08;3.67;;;3.37;;
15404;SDS011;7801;48.124;11.590;2022-12-15T01:45:53;2.63;;;2.53;;
15404;SDS011;7801;48.124;11.590;2022-12-15T01:53:46;3.13;;;3.03;;
15404;SDS011;7801;48.124;11.590;2022-12-15T01:56:22;2.90;;;2.80;;
15404;SDS011;7801;48.124;11.590;2022-12-15T01:58:52;3.30;;;3.10;;
15404;SDS011;7801;48.124;11.590;2022-12-15T02:01:26;2.37;;;2.27;;
15404;SDS011;7801;48.124;11.590;2022-12-15T02:03:59;3.70;;;3.50;;
15404;SDS011;7801;48.124;11.590;2022-12-15T02:06:26;3.57;;;3.37;;
15404;SDS011;7801;48.124;11.590;2022-12-15T02:08:57;3.53;;;3.37;;
15404;SDS011;7801;48.124;11.590;2022-12-15T02:14:01;4.70;;;4.37;;
15404;SDS011;7801;48.124;11.590;2022-12-15T02:16:59;3.07;;;2.97;;
15404;SDS011;7801;48.124;11.590;2022-12-15T02:20:01;3.73;;;2.93;;
15404;SDS011;7801;48.124;11.590;2022-12-15T02:23:24;3.07;;;2.97;;
15404;SDS011;7801;48.124;11.590;2022-12-15T02:32:21;3.03;;;2.83;;
15404;SDS011;7801;48.124;11.590;2022-12-15T02:37:35;5.83;;;3.60;;
15404;SDS011;7801;48.124;11.590;2022-12-15T02:40:06;2.73;;;2.53;;
15404;SDS011;7801;48.124;11.590;2022-12-15T02:42:44;5.30;;;3.77;;
15404;SDS011;7801;48.124;11.590;2022-12-15T02:45:18;4.17;;;3.97;;
15404;SDS011;7801;48.124;11.590;2022-12-15T02:56:23;3.50;;;3.20;;
15404;SDS011;7801;48.124;11.590;2022-12-15T02:59:13;3.20;;;3.10;;
15404;SDS011;7801;48.124;11.590;2022-12-15T03:01:53;3.00;;;2.80;;
15404;SDS011;7801;48.124;11.590;2022-12-15T03:04:24;3.40;;;2.47;;
15404;SDS011;7801;48.124;11.590;2022-12-15T03:06:54;3.60;;;3.40;;
15404;SDS011;7801;48.124;11.590;2022-12-15T03:09:20;2.85;;;2.75;;
15404;SDS011;7801;48.124;11.590;2022-12-15T03:11:46;3.63;;;3.43;;
15404;SDS011;7801;48.124;11.590;2022-12-15T03:14:12;4.03;;;3.67;;
15404;SDS011;7801;48.124;11.590;2022-12-15T03:16:37;3.50;;;3.17;;
15404;SDS011;7801;48.124;11.590;2022-12-15T03:19:05;3.08;;;2.85;;
15404;SDS011;7801;48.124;11.590;2022-12-15T03:21:30;3.58;;;2.87;;
15404;SDS011;7801;48.124;11.590;2022-12-15T03:23:57;3.13;;;2.97;;
15404;SDS011;7801;48.124;11.590;2022-12-15T03:26:25;3.00;;;2.80;;
15404;SDS011;7801;48.124;11.590;2022-12-15T03:28:52;2.15;;;2.05;;
15404;SDS011;7801;48.124;11.590;2022-12-15T03:31:18;4.35;;;3.25;;
15404;SDS011;7801;48.124;11.590;2022-12-15T03:33:45;2.75;;;2.55;;
15404;SDS011;7801;48.124;11.590;2022-12-15T03:36:12;2.28;;;2.17;;
15404;SDS011;7801;48.124;11.590;2022-12-15T03:38:38;2.50;;;1.58;;
15404;SDS011;7801;48.124;11.590;2022-12-15T03:41:11;2.83;;;2.72;;
15404;SDS011;7801;48.124;11.590;2022-12-15T03:43:37;2.33;;;2.22;;
15404;SDS011;7801;48.124;11.590;2022-12-15T03:46:03;2.63;;;2.53;;
15404;SDS011;7801;48.124;11.590;2022-12-15T03:48:30;2.58;;;2.45;;
15404;SDS011;7801;48.124;11.590;2022-12-15T03:50:55;1.30;;;1.30;;
15404;SDS011;7801;48.124;11.590;2022-12-15T03:53:20;3.37;;;3.23;;
15404;SDS011;7801;48.124;11.590;2022-12-15T03:55:47;3.47;;;3.37;;
15404;SDS011;7801;48.124;11.590;2022-12-15T03:58:14;3.50;;;3.30;;
15404;SDS011;7801;48.124;11.590;2022-12-15T04:00:41;2.55;;;2.40;;
15404;SDS011;7801;48.124;11.590;2022-12-15T04:03:07;4.70;;;4.40;;
15404;SDS011;7801;48.124;11.590;2022-12-15T04:05:36;3.10;;;3.00;;
15404;SDS011;7801;48.124;11.590;2022-12-15T04:08:04;2.65;;;2.55;;
15404;SDS011;7801;48.124;11.590;2022-12-15T04:10:31;4.22;;;3.92;;
15404;SDS011;7801;48.124;11.590;2022-12-15T04:13:02;4.32;;;4.12;;
15404;SDS011;7801;48.124;11.590;2022-12-15T04:15:32;4.90;;;4.15;;
15404;SDS011;7801;48.124;11.590;2022-12-15T04:18:00;3.12;;;2.92;;
15404;SDS011;7801;48.124;11.590;2022-12-15T04:20:27;2.55;;;2.45;;
15404;SDS011;7801;48.124;11.590;2022-12-15T04:22:53;3.13;;;3.00;;
15404;SDS011;7801;48.124;11.590;2022-12-15T04:25:20;3.27;;;3.13;;
15404;SDS011;7801;48.124;11.590;2022-12-15T04:28:07;3.85;;;3.30;;
15404;SDS011;7801;48.124;11.590;2022-12-15T04:30:55;3.42;;;3.22;;
15404;SDS011;7801;48.124;11.590;2022-12-15T04:34:06;4.85;;;4.47;;
15404;SDS011;7801;48.124;11.590;2022-12-15T04:36:57;3.75;;;3.47;;
15404;SDS011;7801;48.124;11.590;2022-12-15T04:39:46;3.70;;;3.50;;
15404;SDS011;7801;48.124;11.590;2022-12-15T04:42:36;3.45;;;3.25;;
15404;SDS011;7801;48.124;11.590;2022-12-15T04:45:26;3.92;;;3.58;;
15404;SDS011;7801;48.124;11.590;2022-12-15T04:48:10;3.05;;;2.90;;
15404;SDS011;7801;48.124;11.590;2022-12-15T04:50:56;3.55;;;3.35;;
15404;SDS011;7801;48.124;11.590;2022-12-15T04:53:42;4.75;;;4.35;;
15404;SDS011;7801;48.124;11.590;2022-12-15T04:56:45;3.72;;;3.45;;
15404;SDS011;7801;48.124;11.590;2022-12-15T04:59:31;2.90;;;2.80;;
15404;SDS011;7801;48.124;11.590;2022-12-15T05:02:14;5.63;;;4.93;;
15404;SDS011;7801;48.124;11.590;2022-12-15T05:05:01;2.87;;;2.78;;
15404;SDS011;7801;48.124;11.590;2022-12-15T05:07:46;4.30;;;4.17;;
15404;SDS011;7801;48.124;11.590;2022-12-15T05:10:32;4.15;;;3.78;;
15404;SDS011;7801;48.124;11.590;2022-12-15T05:13:16;5.93;;;4.22;;
15404;SDS011;7801;48.124;11.590;2022-12-15T05:16:03;5.37;;;4.93;;
15404;SDS011;7801;48.124;11.590;2022-12-15T05:18:57;4.75;;;4.53;;
15404;SDS011;7801;48.124;11.590;2022-12-15T05:21:43;2.35;;;2.30;;
15404;SDS011;7801;48.124;11.590;2022-12-15T05:24:29;3.28;;;2.85;;
15404;SDS011;7801;48.124;11.590;2022-12-15T05:27:15;3.58;;;3.28;;
15404;SDS011;7801;48.124;11.590;2022-12-15T05:30:00;2.75;;;2.58;;
15404;SDS011;7801;48.124;11.590;2022-12-15T05:32:44;4.90;;;4.60;;
15404;SDS011;7801;48.124;11.590;2022-12-15T05:35:12;5.05;;;3.50;;
15404;SDS011;7801;48.124;11.590;2022-12-15T05:37:38;3.15;;;2.95;;
15404;SDS011;7801;48.124;11.590;2022-12-15T05:40:03;4.87;;;4.57;;
15404;SDS011;7801;48.124;11.590;2022-12-15T05:42:32;3.67;;;3.47;;
15404;SDS011;7801;48.124;11.590;2022-12-15T05:44:59;4.53;;;4.25;;
15404;SDS011;7801;48.124;11.590;2022-12-15T05:47:24;3.37;;;3.15;;
15404;SDS011;7801;48.124;11.590;2022-12-15T05:49:53;4.10;;;3.90;;
15404;SDS011;7801;48.124;11.590;2022-12-15T05:52:19;2.58;;;2.47;;
15404;SDS011;7801;48.124;11.590;2022-12-15T05:54:45;3.65;;;3.50;;
15404;SDS011;7801;48.124;11.590;2022-12-15T05:57:11;5.10;;;4.70;;
15404;SDS011;7801;48.124;11.590;2022-12-15T05:59:38;3.78;;;3.45;;
15404;SDS011;7801;48.124;11.590;2022-12-15T06:02:06;3.95;;;3.70;;
15404;SDS011;7801;48.124;11.590;2022-12-15T06:04:31;4.10;;;3.67;;
15404;SDS011;7801;48.124;11.590;2022-12-15T06:06:59;3.30;;;3.17;;
15404;SDS011;7801;48.124;11.590;2022-12-15T06:09:26;3.60;;;3.35;;
15404;SDS011;7801;48.124;11.590;2022-12-15T06:11:51;5.35;;;4.85;;
15404;SDS011;7801;48.124;11.590;2022-12-15T06:14:18;3.07;;;2.87;;
15404;SDS011;7801;48.124;11.590;2022-12-15T06:16:45;4.03;;;3.62;;
15404;SDS011;7801;48.124;11.590;2022-12-15T06:19:13;3.42;;;3.22;;
15404;SDS011;7801;48.124;11.590;2022-12-15T06:21:41;3.35;;;3.15;;
15404;SDS011;7801;48.124;11.590;2022-12-15T06:24:08;3.85;;;3.65;;
15404;SDS011;7801;48.124;11.590;2022-12-15T06:26:38;4.68;;;4.43;;
15404;SDS011;7801;48.124;11.590;2022-12-15T06:29:13;6.00;;;5.57;;
15404;SDS011;7801;48.124;11.590;2022-12-15T06:31:41;3.53;;;3.43;;
15404;SDS011;7801;48.124;11.590;2022-12-15T06:34:11;4.03;;;3.78;;
15404;SDS011;7801;48.124;11.590;2022-12-15T06:36:39;4.20;;;3.97;;
15404;SDS011;7801;48.124;11.590;2022-12-15T06:39:10;4.22;;;3.87;;
15404;SDS011;7801;48.124;11.590;2022-12-15T06:41:37;4.57;;;4.30;;
15404;SDS011;7801;48.124;11.590;2022-12-15T06:44:07;5.25;;;4.85;;
15404;SDS011;7801;48.124;11.590;2022-12-15T06:46:44;5.25;;;4.97;;
15404;SDS011;7801;48.124;11.590;2022-12-15T06:49:14;6.50;;;6.00;;
15404;SDS011;7801;48.124;11.590;2022-12-15T06:51:39;4.68;;;4.37;;
15404;SDS011;7801;48.124;11.590;2022-12-15T06:54:09;4.05;;;3.85;;
15404;SDS011;7801;48.124;11.590;2022-12-15T06:56:36;5.25;;;4.90;;
15404;SDS011;7801;48.124;11.590;2022-12-15T06:59:02;5.13;;;4.70;;
15404;SDS011;7801;48.124;11.590;2022-12-15T07:01:30;3.42;;;3.28;;
15404;SDS011;7801;48.124;11.590;2022-12-15T07:03:56;3.75;;;3.58;;
15404;SDS011;7801;48.124;11.590;2022-12-15T07:06:26;3.40;;;3.30;;
15404;SDS011;7801;48.124;11.590;2022-12-15T07:09:12;4.20;;;3.80;;
15404;SDS011;7801;48.124;11.590;2022-12-15T07:11:42;5.20;;;5.00;;
15404;SDS011;7801;48.124;11.590;2022-12-15T07:14:07;5.65;;;5.22;;
15404;SDS011;7801;48.124;11.590;2022-12-15T07:16:46;4.00;;;3.70;;
15404;SDS011;7801;48.124;11.590;2022-12-15T07:19:14;3.37;;;3.25;;
15404;SDS011;7801;48.124;11.590;2022-12-15T07:21:40;4.45;;;4.25;;
15404;SDS011;7801;48.124;11.590;2022-12-15T07:24:08;4.45;;;4.22;;
15404;SDS011;7801;48.124;11.590;2022-12-15T07:26:37;4.35;;;4.12;;
15404;SDS011;7801;48.124;11.590;2022-12-15T07:29:04;5.35;;;5.03;;
15404;SDS011;7801;48.124;11.590;2022-12-15T07:31:30;5.00;;;4.50;;
15404;SDS011;7801;48.124;11.590;2022-12-15T07:33:59;4.62;;;4.35;;
15404;SDS011;7801;48.124;11.590;2022-12-15T07:36:27;3.90;;;2.53;;
15404;SDS011;7801;48.124;11.590;2022-12-15T07:38:56;5.70;;;5.10;;
15404;SDS011;7801;48.124;11.590;2022-12-15T07:41:27;4.33;;;4.13;;
15404;SDS011;7801;48.124;11.590;2022-12-15T07:43:56;4.23;;;3.97;;
15404;SDS011;7801;48.124;11.590;2022-12-15T07:46:30;8.23;;;7.57;;
15404;SDS011;7801;48.124;11.590;2022-12-15T07:48:56;4.37;;;3.97;;
15404;SDS011;7801;48.124;11.590;2022-12-15T07:51:22;4.77;;;4.57;;
15404;SDS011;7801;48.124;11.590;2022-12-15T07:53:51;5.70;;;5.30;;
15404;SDS011;7801;48.124;11.590;2022-12-15T07:56:19;4.13;;;3.90;;
15404;SDS011;7801;48.124;11.590;2022-12-15T07:58:46;6.27;;;5.77;;
15404;SDS011;7801;48.124;11.590;2022-12-15T08:01:13;7.87;;;7.33;;
15404;SDS011;7801;48.124;11.590;2022-12-15T08:03:41;5.87;;;5.37;;
15404;SDS011;7801;48.124;11.590;2022-12-15T08:06:09;6.47;;;6.00;;
15404;SDS011;7801;48.124;11.590;2022-12-15T08:08:38;6.40;;;6.00;;
15404;SDS011;7801;48.124;11.590;2022-12-15T08:11:07;4.57;;;4.17;;
15404;SDS011;7801;48.124;11.590;2022-12-15T08:13:36;6.73;;;6.10;;
15404;SDS011;7801;48.124;11.590;2022-12-15T08:16:04;6.20;;;4.93;;
15404;SDS011;7801;48.124;11.590;2022-12-15T08:18:36;6.07;;;5.67;;
15404;SDS011;7801;48.124;11.590;2022-12-15T08:21:05;4.63;;;4.37;;
15404;SDS011;7801;48.124;11.590;2022-12-15T08:23:43;14.57;;;8.30;;
15404;SDS011;7801;48.124;11.590;2022-12-15T08:26:14;5.57;;;5.17;;
15404;SDS011;7801;48.124;11.590;2022-12-15T08:28:45;6.93;;;5.87;;
15404;SDS011;7801;48.124;11.590;2022-12-15T08:31:14;5.83;;;5.43;;
15404;SDS011;7801;48.124;11.590;2022-12-15T08:33:44;6.30;;;5.83;;
15404;SDS011;7801;48.124;11.590;2022-12-15T08:36:15;5.40;;;4.90;;
15404;SDS011;7801;48.124;11.590;2022-12-15T08:38:46;5.23;;;4.93;;
15404;SDS011;7801;48.124;11.590;2022-12-15T08:41:17;9.07;;;5.67;;
15404;SDS011;7801;48.124;11.590;2022-12-15T08:43:55;4.57;;;4.37;;
15404;SDS011;7801;48.124;11.590;2022-12-15T08:46:22;6.17;;;5.57;;
15404;SDS011;7801;48.124;11.590;2022-12-15T08:49:02;5.27;;;4.67;;
15404;SDS011;7801;48.124;11.590;2022-12-15T08:51:28;5.83;;;5.47;;
15404;SDS011;7801;48.124;11.590;2022-12-15T08:53:58;5.30;;;5.00;;
15404;SDS011;7801;48.124;11.590;2022-12-15T08:56:28;4.80;;;4.60;;
15404;SDS011;7801;48.124;11.590;2022-12-15T08:59:00;5.63;;;5.23;;
15404;SDS011;7801;48.124;11.590;2022-12-15T09:01:27;4.63;;;4.30;;
15404;SDS011;7801;48.124;11.590;2022-12-15T09:03:57;6.70;;;6.07;;
15404;SDS011;7801;48.124;11.590;2022-12-15T09:06:29;4.73;;;4.33;;
15404;SDS011;7801;48.124;11.590;2022-12-15T09:09:14;6.37;;;5.87;;
15404;SDS011;7801;48.124;11.590;2022-12-15T09:11:43;4.43;;;4.23;;
15404;SDS011;7801;48.124;11.590;2022-12-15T09:14:10;6.70;;;4.63;;
15404;SDS011;7801;48.124;11.590;2022-12-15T09:16:37;5.10;;;4.80;;
15404;SDS011;7801;48.124;11.590;2022-12-15T09:19:03;3.97;;;3.73;;
15404;SDS011;7801;48.124;11.590;2022-12-15T09:21:31;5.77;;;5.37;;
15404;SDS011;7801;48.124;11.590;2022-12-15T09:23:59;4.50;;;4.30;;
15404;SDS011;7801;48.124;11.590;2022-12-15T09:26:27;6.17;;;4.70;;
15404;SDS011;7801;48.124;11.590;2022-12-15T09:28:55;5.17;;;4.87;;
15404;SDS011;7801;48.124;11.590;2022-12-15T09:31:25;6.63;;;5.37;;
15404;SDS011;7801;48.124;11.590;2022-12-15T09:33:55;7.20;;;6.57;;
15404;SDS011;7801;48.124;11.590;2022-12-15T09:36:23;5.27;;;4.87;;
15404;SDS011;7801;48.124;11.590;2022-12-15T09:38:48;4.37;;;4.00;;
15404;SDS011;7801;48.124;11.590;2022-12-15T09:41:27;5.73;;;5.33;;
15404;SDS011;7801;48.124;11.590;2022-12-15T09:49:59;5.70;;;5.23;;
15404;SDS011;7801;48.124;11.590;2022-12-15T09:52:34;6.80;;;5.77;;
15404;SDS011;7801;48.124;11.590;2022-12-15T09:55:15;6.43;;;6.03;;
15404;SDS011;7801;48.124;11.590;2022-12-15T10:08:34;6.90;;;6.50;;
15404;SDS011;7801;48.124;11.590;2022-12-15T10:11:14;5.60;;;5.30;;
15404;SDS011;7801;48.124;11.590;2022-12-15T10:22:49;6.40;;;5.70;;
15404;SDS011;7801;48.124;11.590;2022-12-15T10:25:26;5.77;;;5.47;;
15404;SDS011;7801;48.124;11.590;2022-12-15T10:31:00;5.97;;;5.57;;
15404;SDS011;7801;48.124;11.590;2022-12-15T10:33:35;8.43;;;7.73;;
15404;SDS011;7801;48.124;11.590;2022-12-15T10:36:12;6.03;;;5.53;;
15404;SDS011;7801;48.124;11.590;2022-12-15T10:38:41;7.00;;;6.27;;
15404;SDS011;7801;48.124;11.590;2022-12-15T10:41:22;6.13;;;5.90;;
15404;SDS011;7801;48.124;11.590;2022-12-15T10:43:53;8.87;;;7.80;;
15404;SDS011;7801;48.124;11.590;2022-12-15T10:46:25;6.53;;;6.03;;
15404;SDS011;7801;48.124;11.590;2022-12-15T10:49:26;6.87;;;6.43;;
15404;SDS011;7801;48.124;11.590;2022-12-15T10:51:54;5.63;;;5.13;;
15404;SDS011;7801;48.124;11.590;2022-12-15T10:54:34;5.30;;;4.70;;
15404;SDS011;7801;48.124;11.590;2022-12-15T10:57:15;7.93;;;7.33;;
15404;SDS011;7801;48.124;11.590;2022-12-15T11:00:24;6.73;;;6.30;;
15404;SDS011;7801;48.124;11.590;2022-12-15T11:02:53;8.97;;;8.30;;
15404;SDS011;7801;48.124;11.590;2022-12-15T11:05:21;8.10;;;7.40;;
15404;SDS011;7801;48.124;11.590;2022-12-15T11:07:54;8.10;;;6.37;;
15404;SDS011;7801;48.124;11.590;2022-12-15T11:10:53;9.77;;;8.33;;
15404;SDS011;7801;48.124;11.590;2022-12-15T11:13:40;7.53;;;7.10;;
15404;SDS011;7801;48.124;11.590;2022-12-15T11:16:13;8.70;;;7.60;;
15404;SDS011;7801;48.124;11.590;2022-12-15T11:21:34;6.37;;;5.87;;
15404;SDS011;7801;48.124;11.590;2022-12-15T11:24:25;6.83;;;6.33;;
15404;SDS011;7801;48.124;11.590;2022-12-15T11:32:38;7.53;;;6.97;;
15404;SDS011;7801;48.124;11.590;2022-12-15T11:35:15;6.13;;;5.73;;
15404;SDS011;7801;48.124;11.590;2022-12-15T11:43:56;4.53;;;4.37;;
15404;SDS011;7801;48.124;11.590;2022-12-15T11:58:23;9.17;;;8.43;;
15404;SDS011;7801;48.124;11.590;2022-12-15T12:04:23;5.00;;;4.70;;
15404;SDS011;7801;48.124;11.590;2022-12-15T12:19:11;5.33;;;4.90;;
15404;SDS011;7801;48.124;11.590;2022-12-15T12:21:45;7.00;;;6.50;;
15404;SDS011;7801;48.124;11.590;2022-12-15T12:24:23;16.33;;;7.73;;
15404;SDS011;7801;48.124;11.590;2022-12-15T12:27:02;6.20;;;5.80;;
15404;SDS011;7801;48.124;11.590;2022-12-15T12:30:20;10.90;;;7.20;;
15404;SDS011;7801;48.124;11.590;2022-12-15T12:32:36;7.13;;;6.77;;
15404;SDS011;7801;48.124;11.590;2022-12-15T12:38:15;5.53;;;4.97;;
15404;SDS011;7801;48.124;11.590;2022-12-15T12:46:26;9.67;;;8.87;;
15404;SDS011;7801;48.124;11.590;2022-12-15T12:51:51;20.37;;;7.07;;
15404;SDS011;7801;48.124;11.590;2022-12-15T13:02:56;9.47;;;7.10;;
15404;SDS011;7801;48.124;11.590;2022-12-15T13:05:39;7.93;;;7.30;;
15404;SDS011;7801;48.124;11.590;2022-12-15T13:10:53;7.77;;;7.17;;
15404;SDS011;7801;48.124;11.590;2022-12-15T13:13:37;7.70;;;6.87;;
15404;SDS011;7801;48.124;11.590;2022-12-15T13:16:25;6.47;;;6.07;;
15404;SDS011;7801;48.124;11.590;2022-12-15T13:18:54;8.10;;;7.50;;
15404;SDS011;7801;48.124;11.590;2022-12-15T13:24:25;6.77;;;5.27;;
15404;SDS011;7801;48.124;11.590;2022-12-15T13:27:29;7.90;;;7.17;;
15404;SDS011;7801;48.124;11.590;2022-12-15T13:32:40;7.10;;;6.50;;
15404;SDS011;7801;48.124;11.590;2022-12-15T13:38:00;6.47;;;5.97;;
15404;SDS011;7801;48.124;11.590;2022-12-15T13:43:07;6.13;;;5.80;;
15404;SDS011;7801;48.124;11.590;2022-12-15T13:46:01;6.00;;;5.70;;
15404;SDS011;7801;48.124;11.590;2022-12-15T13:48:45;6.23;;;5.83;;
15404;SDS011;7801;48.124;11.590;2022-12-15T13:51:27;6.73;;;6.13;;
15404;SDS011;7801;48.124;11.590;2022-12-15T13:54:20;7.20;;;6.83;;
15404;SDS011;7801;48.124;11.590;2022-12-15T13:57:13;10.57;;;7.43;;
15404;SDS011;7801;48.124;11.590;2022-12-15T14:02:43;5.70;;;5.20;;
15404;SDS011;7801;48.124;11.590;2022-12-15T14:10:34;5.83;;;5.37;;
15404;SDS011;7801;48.124;11.590;2022-12-15T14:13:23;5.57;;;5.20;;
15404;SDS011;7801;48.124;11.590;2022-12-15T14:16:00;8.40;;;7.70;;
15404;SDS011;7801;48.124;11.590;2022-12-15T14:18:35;7.40;;;6.90;;
15404;SDS011;7801;48.124;11.590;2022-12-15T14:21:19;8.87;;;8.17;;
15404;SDS011;7801;48.124;11.590;2022-12-15T14:23:46;8.77;;;7.97;;
15404;SDS011;7801;48.124;11.590;2022-12-15T14:26:14;7.37;;;6.67;;
15404;SDS011;7801;48.124;11.590;2022-12-15T14:28:43;7.53;;;6.93;;
15404;SDS011;7801;48.124;11.590;2022-12-15T14:34:10;7.67;;;7.17;;
15404;SDS011;7801;48.124;11.590;2022-12-15T14:36:53;7.80;;;7.27;;
15404;SDS011;7801;48.124;11.590;2022-12-15T14:39:41;8.73;;;7.93;;
15404;SDS011;7801;48.124;11.590;2022-12-15T14:42:16;5.27;;;4.90;;
15404;SDS011;7801;48.124;11.590;2022-12-15T14:44:45;6.77;;;6.20;;
15404;SDS011;7801;48.124;11.590;2022-12-15T14:47:23;5.87;;;5.13;;
15404;SDS011;7801;48.124;11.590;2022-12-15T14:49:51;6.80;;;6.30;;
15404;SDS011;7801;48.124;11.590;2022-12-15T14:57:57;5.87;;;5.57;;
15404;SDS011;7801;48.124;11.590;2022-12-15T15:00:33;4.97;;;4.67;;
15404;SDS011;7801;48.124;11.590;2022-12-15T15:03:19;6.40;;;6.10;;
15404;SDS011;7801;48.124;11.590;2022-12-15T15:05:55;6.00;;;5.70;;
15404;SDS011;7801;48.124;11.590;2022-12-15T15:08:32;9.67;;;5.80;;
15404;SDS011;7801;48.124;11.590;2022-12-15T15:11:27;6.37;;;6.07;;
15404;SDS011;7801;48.124;11.590;2022-12-15T15:14:04;6.27;;;5.67;;
15404;SDS011;7801;48.124;11.590;2022-12-15T15:16:37;6.53;;;6.07;;
15404;SDS011;7801;48.124;11.590;2022-12-15T15:19:03;6.00;;;5.67;;
15404;SDS011;7801;48.124;11.590;2022-12-15T15:21:33;5.57;;;5.17;;
15404;SDS011;7801;48.124;11.590;2022-12-15T15:26:42;5.83;;;5.43;;
15404;SDS011;7801;48.124;11.590;2022-12-15T15:32:15;5.50;;;5.17;;
15404;SDS011;7801;48.124;11.590;2022-12-15T15:34:44;8.43;;;7.70;;
15404;SDS011;7801;48.124;11.590;2022-12-15T15:37:24;7.33;;;6.80;;
15404;SDS011;7801;48.124;11.590;2022-12-15T15:39:54;7.50;;;7.00;;
15404;SDS011;7801;48.124;11.590;2022-12-15T15:42:23;6.30;;;5.70;;
15404;SDS011;7801;48.124;11.590;2022-12-15T15:44:49;12.00;;;7.73;;
15404;SDS011;7801;48.124;11.590;2022-12-15T15:47:24;7.80;;;7.13;;
15404;SDS011;7801;48.124;11.590;2022-12-15T15:49:50;6.73;;;6.43;;
15404;SDS011;7801;48.124;11.590;2022-12-15T15:52:23;7.20;;;6.70;;
15404;SDS011;7801;48.124;11.590;2022-12-15T15:54:49;6.93;;;6.43;;
15404;SDS011;7801;48.124;11.590;2022-12-15T15:57:19;7.90;;;7.17;;
15404;SDS011;7801;48.124;11.590;2022-12-15T15:59:45;7.07;;;6.50;;
15404;SDS011;7801;48.124;11.590;2022-12-15T16:02:12;6.50;;;5.93;;
15404;SDS011;7801;48.124;11.590;2022-12-15T16:04:40;6.60;;;6.23;;
15404;SDS011;7801;48.124;11.590;2022-12-15T16:07:32;32.93;;;7.73;;
15404;SDS011;7801;48.124;11.590;2022-12-15T16:10:01;6.07;;;5.70;;
15404;SDS011;7801;48.124;11.590;2022-12-15T16:12:51;11.10;;;8.63;;
15404;SDS011;7801;48.124;11.590;2022-12-15T16:15:24;7.33;;;6.93;;
15404;SDS011;7801;48.124;11.590;2022-12-15T16:18:10;7.20;;;6.60;;
15404;SDS011;7801;48.124;11.590;2022-12-15T16:20:39;8.40;;;6.30;;
15404;SDS011;7801;48.124;11.590;2022-12-15T16:23:11;6.50;;;6.03;;
15404;SDS011;7801;48.124;11.590;2022-12-15T16:25:40;7.10;;;6.50;;
15404;SDS011;7801;48.124;11.590;2022-12-15T16:28:12;8.03;;;7.50;;
15404;SDS011;7801;48.124;11.590;2022-12-15T16:30:46;7.17;;;6.67;;
15404;SDS011;7801;48.124;11.590;2022-12-15T16:33:15;7.87;;;7.37;;
15404;SDS011;7801;48.124;11.590;2022-12-15T16:35:43;6.87;;;6.47;;
15404;SDS011;7801;48.124;11.590;2022-12-15T16:38:28;8.50;;;7.70;;
15404;SDS011;7801;48.124;11.590;2022-12-15T16:40:55;5.53;;;5.07;;
15404;SDS011;7801;48.124;11.590;2022-12-15T16:43:33;5.50;;;5.20;;
15404;SDS011;7801;48.124;11.590;2022-12-15T16:46:00;8.33;;;7.63;;
15404;SDS011;7801;48.124;11.590;2022-12-15T16:48:25;6.33;;;5.93;;
15404;SDS011;7801;48.124;11.590;2022-12-15T16:50:55;6.03;;;5.33;;
15404;SDS011;7801;48.124;11.590;2022-12-15T16:53:26;5.97;;;5.68;;
15404;SDS011;7801;48.124;11.590;2022-12-15T16:55:57;8.10;;;7.45;;
15404;SDS011;7801;48.124;11.590;2022-12-15T16:58:25;6.53;;;5.87;;
15404;SDS011;7801;48.124;11.590;2022-12-15T17:00:53;7.45;;;6.87;;
15404;SDS011;7801;48.124;11.590;2022-12-15T17:03:20;8.68;;;7.30;;
15404;SDS011;7801;48.124;11.590;2022-12-15T17:05:57;7.87;;;7.30;;
15404;SDS011;7801;48.124;11.590;2022-12-15T17:08:45;6.95;;;6.53;;
15404;SDS011;7801;48.124;11.590;2022-12-15T17:11:20;8.18;;;7.43;;
15404;SDS011;7801;48.124;11.590;2022-12-15T17:13:49;4.68;;;4.35;;
15404;SDS011;7801;48.124;11.590;2022-12-15T17:16:22;5.57;;;5.27;;
15404;SDS011;7801;48.124;11.590;2022-12-15T17:18:53;7.93;;;7.35;;
15404;SDS011;7801;48.124;11.590;2022-12-15T17:21:28;6.37;;;5.87;;
15404;SDS011;7801;48.124;11.590;2022-12-15T17:23:58;5.63;;;5.20;;
15404;SDS011;7801;48.124;11.590;2022-12-15T17:26:31;9.23;;;7.00;;
15404;SDS011;7801;48.124;11.590;2022-12-15T17:29:01;4.43;;;4.07;;
15404;SDS011;7801;48.124;11.590;2022-12-15T17:31:34;6.72;;;6.32;;
15404;SDS011;7801;48.124;11.590;2022-12-15T17:34:00;9.98;;;8.98;;
15404;SDS011;7801;48.124;11.590;2022-12-15T17:36:48;6.72;;;6.05;;
15404;SDS011;7801;48.124;11.590;2022-12-15T17:39:26;6.82;;;6.32;;
15404;SDS011;7801;48.124;11.590;2022-12-15T17:41:58;6.95;;;6.22;;
15404;SDS011;7801;48.124;11.590;2022-12-15T17:44:25;9.23;;;8.50;;
15404;SDS011;7801;48.124;11.590;2022-12-15T17:46:58;9.17;;;8.47;;
15404;SDS011;7801;48.124;11.590;2022-12-15T17:49:24;8.83;;;7.67;;
15404;SDS011;7801;48.124;11.590;2022-12-15T17:51:50;9.57;;;8.60;;
15404;SDS011;7801;48.124;11.590;2022-12-15T17:54:17;8.50;;;7.87;;
15404;SDS011;7801;48.124;11.590;2022-12-15T17:56:47;7.60;;;5.53;;
15404;SDS011;7801;48.124;11.590;2022-12-15T17:59:14;8.02;;;7.28;;
15404;SDS011;7801;48.124;11.590;2022-12-15T18:01:44;8.98;;;8.48;;
15404;SDS011;7801;48.124;11.590;2022-12-15T18:04:11;7.10;;;6.60;;